createdAt,value
2023-10-14T00:01:16.318Z,88.56
2023-10-14T00:03:46.749Z,89.40
2023-10-14T00:06:14.797Z,90.10
2023-10-14T00:08:49.867Z,90.13
2023-10-14T00:11:17.794Z,90.01
2023-10-14T00:13:50.176Z,89.70
2023-10-14T00:16:28.704Z,88.29
2023-10-14T00:18:57.126Z,87.37
2023-10-14T00:21:27.703Z,86.09
2023-10-14T00:23:58.640Z,84.85
2023-10-14T00:26:26.485Z,83.99
2023-10-14T00:28:55.860Z,83.37
2023-10-14T00:31:24.604Z,82.42
2023-10-14T00:33:54.366Z,81.55
2023-10-14T00:36:22.248Z,81.05
2023-10-14T00:38:57.355Z,80.59
2023-10-14T00:41:27.694Z,80.32
2023-10-14T00:43:55.853Z,80.93
2023-10-14T00:46:25.040Z,82.43
2023-10-14T00:49:00.064Z,84.27
2023-10-14T00:51:31.951Z,85.65
2023-10-14T00:54:12.137Z,86.79
2023-10-14T00:56:42.337Z,87.96
2023-10-14T00:59:10.637Z,88.60
2023-10-14T01:02:00.814Z,89.19
2023-10-14T01:04:33.640Z,89.30
2023-10-14T01:07:00.967Z,89.89
2023-10-14T01:09:43.399Z,89.93
2023-10-14T01:12:17.829Z,89.61
2023-10-14T01:14:46.046Z,89.24
2023-10-14T01:17:23.454Z,88.14
2023-10-14T01:19:51.503Z,87.21
2023-10-14T01:22:18.216Z,85.99
2023-10-14T01:24:44.926Z,85.00
2023-10-14T01:27:12.769Z,83.90
2023-10-14T01:29:42.824Z,83.46
2023-10-14T01:32:50.749Z,82.03
2023-10-14T01:35:24.289Z,80.51
2023-10-14T01:37:58.413Z,78.44
2023-10-14T01:40:58.870Z,76.98
2023-10-14T01:43:26.329Z,75.24
2023-10-14T01:45:56.448Z,74.47
2023-10-14T01:48:26.845Z,73.68
2023-10-14T01:50:59.339Z,71.90
2023-10-14T01:53:33.856Z,70.88
2023-10-14T01:56:03.114Z,69.00
2023-10-14T01:58:34.589Z,68.20
2023-10-14T02:01:09.208Z,67.28
2023-10-14T02:03:43.835Z,66.15
2023-10-14T02:06:13.310Z,64.96
2023-10-14T02:08:40.403Z,64.45
2023-10-14T02:11:07.269Z,64.58
2023-10-14T02:13:37.749Z,63.70
2023-10-14T02:16:08.896Z,63.28
2023-10-14T02:18:39.246Z,63.03
2023-10-14T02:21:08.137Z,62.72
2023-10-14T02:23:45.608Z,62.39
2023-10-14T02:26:13.334Z,62.27
2023-10-14T02:28:42.601Z,61.64
2023-10-14T02:31:18.659Z,61.67
2023-10-14T02:33:49.538Z,61.20
2023-10-14T02:36:17.150Z,60.64
2023-10-14T02:38:54.522Z,60.26
2023-10-14T02:41:28.145Z,59.63
2023-10-14T02:44:15.455Z,59.40
2023-10-14T02:46:48.778Z,59.31
2023-10-14T02:49:16.575Z,59.28
2023-10-14T02:51:44.962Z,58.95
2023-10-14T02:54:28.183Z,59.13
2023-10-14T02:56:56.078Z,59.04
2023-10-14T02:59:31.165Z,58.91
2023-10-14T03:02:16.610Z,59.08
2023-10-14T03:04:54.073Z,59.08
2023-10-14T03:07:30.181Z,58.95
2023-10-14T03:10:11.666Z,59.04
2023-10-14T03:12:41.616Z,58.98
2023-10-14T03:15:36.731Z,58.85
2023-10-14T03:18:03.659Z,59.32
2023-10-14T03:20:32.526Z,59.54
2023-10-14T03:23:10.981Z,59.71
2023-10-14T03:25:40.924Z,60.18
2023-10-14T03:28:13.706Z,60.01
2023-10-14T03:30:45.788Z,60.34
2023-10-14T03:33:21.897Z,60.20
2023-10-14T03:36:07.308Z,60.00
2023-10-14T03:38:41.717Z,60.01
2023-10-14T03:41:13.291Z,60.13
2023-10-14T03:43:44.592Z,60.56
2023-10-14T03:46:14.525Z,60.83
2023-10-14T03:48:48.644Z,61.20
2023-10-14T03:51:25.761Z,61.14
2023-10-14T03:53:54.272Z,61.42
2023-10-14T03:56:26.685Z,61.60
2023-10-14T03:58:59.695Z,61.94
2023-10-14T04:01:35.750Z,62.65
2023-10-14T04:04:18.243Z,63.11
2023-10-14T04:06:57.512Z,63.43
2023-10-14T04:09:26.001Z,64.46
2023-10-14T04:11:55.889Z,65.16
2023-10-14T04:14:23.828Z,65.44
2023-10-14T04:17:01.881Z,66.27
2023-10-14T04:19:29.279Z,67.00
2023-10-14T04:22:02.220Z,67.82
2023-10-14T04:24:32.625Z,68.36
2023-10-14T04:27:17.780Z,68.69
2023-10-14T04:29:59.833Z,68.72
2023-10-14T04:32:28.775Z,69.75
2023-10-14T04:34:57.018Z,69.63
2023-10-14T04:37:23.791Z,71.06
2023-10-14T04:39:59.856Z,72.21
2023-10-14T04:42:37.186Z,72.72
2023-10-14T04:45:05.787Z,73.51
2023-10-14T04:47:38.756Z,73.97
2023-10-14T04:50:11.777Z,74.41
2023-10-14T04:52:39.764Z,74.97
2023-10-14T04:55:30.334Z,75.35
2023-10-14T04:58:12.409Z,75.74
2023-10-14T05:00:44.610Z,76.14
2023-10-14T05:03:13.620Z,76.39
2023-10-14T05:05:45.146Z,76.34
2023-10-14T05:08:17.283Z,76.31
2023-10-14T05:10:45.424Z,75.71
2023-10-14T05:13:13.755Z,75.62
2023-10-14T05:15:44.482Z,75.78
2023-10-14T05:18:18.312Z,75.80
2023-10-14T05:20:56.889Z,75.53
2023-10-14T05:23:32.238Z,75.01
2023-10-14T05:26:01.230Z,73.99
2023-10-14T05:28:32.735Z,73.75
2023-10-14T05:31:03.833Z,72.95
2023-10-14T05:33:32.598Z,72.30
2023-10-14T05:35:59.832Z,71.62
2023-10-14T05:38:26.541Z,71.41
2023-10-14T05:40:57.352Z,71.62
2023-10-14T05:43:25.265Z,71.56
2023-10-14T05:45:55.259Z,71.25
2023-10-14T05:48:32.298Z,71.23
2023-10-14T05:50:59.057Z,70.73
2023-10-14T05:53:27.278Z,70.03
2023-10-14T05:56:11.122Z,68.91
2023-10-14T05:58:39.240Z,68.39
2023-10-14T06:01:17.551Z,68.78
2023-10-14T06:03:44.524Z,69.05
2023-10-14T06:06:15.890Z,68.24
2023-10-14T06:08:47.835Z,68.22
2023-10-14T06:11:15.038Z,68.44
2023-10-14T06:13:41.750Z,68.13
2023-10-14T06:16:15.501Z,67.47
2023-10-14T06:18:42.674Z,67.18
2023-10-14T06:21:12.509Z,66.23
2023-10-14T06:23:48.585Z,65.30
2023-10-14T06:26:19.165Z,65.46
2023-10-14T06:28:46.755Z,65.58
2023-10-14T06:31:14.290Z,66.04
2023-10-14T06:33:45.086Z,65.56
2023-10-14T06:36:15.637Z,65.20
2023-10-14T06:38:45.827Z,65.06
2023-10-14T06:41:18.426Z,65.58
2023-10-14T06:43:57.633Z,64.62
2023-10-14T06:46:26.770Z,64.44
2023-10-14T06:48:56.960Z,64.32
2023-10-14T06:51:24.275Z,63.78
2023-10-14T06:53:53.817Z,63.54
2023-10-14T06:56:22.248Z,63.19
2023-10-14T06:58:48.984Z,62.90
2023-10-14T07:01:17.898Z,63.21
2023-10-14T07:03:44.910Z,62.85
2023-10-14T07:06:11.627Z,63.01
2023-10-14T07:08:41.179Z,63.90
2023-10-14T07:11:08.129Z,63.99
2023-10-14T07:13:34.809Z,64.13
2023-10-14T07:16:09.366Z,64.11
2023-10-14T07:18:39.589Z,63.98
2023-10-14T07:21:14.468Z,63.85
2023-10-14T07:23:41.447Z,63.59
2023-10-14T07:26:13.464Z,62.80
2023-10-14T07:28:44.949Z,63.52
2023-10-14T07:31:13.365Z,63.07
2023-10-14T07:33:41.867Z,63.86
2023-10-14T07:36:08.735Z,63.33
2023-10-14T07:38:36.566Z,63.08
2023-10-14T07:41:04.570Z,62.87
2023-10-14T07:43:31.358Z,62.91
2023-10-14T07:46:00.027Z,62.68
2023-10-14T07:48:27.582Z,62.12
2023-10-14T07:50:57.617Z,62.30
2023-10-14T07:53:24.646Z,61.92
2023-10-14T07:55:54.377Z,62.17
2023-10-14T07:58:25.970Z,61.69
2023-10-14T08:00:55.243Z,61.93
2023-10-14T08:03:24.312Z,62.12
2023-10-14T08:05:55.039Z,61.35
2023-10-14T08:08:24.682Z,61.50
2023-10-14T08:10:52.662Z,62.13
2023-10-14T08:13:22.649Z,61.35
2023-10-14T08:15:51.968Z,60.84
2023-10-14T08:18:21.005Z,60.12
2023-10-14T08:20:50.420Z,60.33
2023-10-14T08:23:18.596Z,60.89
2023-10-14T08:25:45.295Z,60.43
2023-10-14T08:28:12.338Z,60.39
2023-10-14T08:30:52.046Z,60.28
2023-10-14T08:33:24.544Z,59.68
2023-10-14T08:35:53.467Z,59.62
2023-10-14T08:38:23.633Z,60.34
2023-10-14T08:40:57.489Z,60.36
2023-10-14T08:43:27.728Z,59.65
2023-10-14T08:46:01.551Z,59.96
2023-10-14T08:48:30.737Z,59.74
2023-10-14T08:50:58.804Z,60.17
2023-10-14T08:53:28.900Z,60.07
2023-10-14T08:55:59.378Z,59.74
2023-10-14T08:58:27.745Z,60.16
2023-10-14T09:00:56.120Z,59.92
2023-10-14T09:03:23.209Z,59.88
2023-10-14T09:05:50.104Z,60.15
2023-10-14T09:08:21.131Z,60.27
2023-10-14T09:10:51.216Z,60.97
2023-10-14T09:13:22.173Z,60.46
2023-10-14T09:15:51.421Z,60.23
2023-10-14T09:18:21.250Z,59.69
2023-10-14T09:20:56.102Z,60.09
2023-10-14T09:23:22.821Z,60.39
2023-10-14T09:25:57.183Z,60.56
2023-10-14T09:28:26.265Z,59.69
2023-10-14T09:30:55.941Z,60.24
2023-10-14T09:33:29.085Z,60.00
2023-10-14T09:36:03.811Z,60.19
2023-10-14T09:38:33.589Z,60.51
2023-10-14T09:41:04.567Z,59.91
2023-10-14T09:43:36.371Z,59.21
2023-10-14T09:46:10.642Z,59.81
2023-10-14T09:48:38.018Z,60.53
2023-10-14T09:51:09.258Z,59.66
2023-10-14T09:53:37.415Z,59.38
2023-10-14T09:56:09.006Z,59.47
2023-10-14T09:58:44.304Z,59.10
2023-10-14T10:01:20.399Z,58.80
2023-10-14T10:04:15.559Z,59.13
2023-10-14T10:07:09.050Z,59.56
2023-10-14T10:09:38.727Z,59.41
2023-10-14T10:12:11.477Z,59.46
2023-10-14T10:14:47.765Z,58.79
2023-10-14T10:17:16.972Z,59.08
2023-10-14T10:20:10.017Z,58.55
2023-10-14T10:22:45.708Z,58.32
2023-10-14T10:25:16.216Z,58.73
2023-10-14T10:27:44.181Z,57.93
2023-10-14T10:30:16.099Z,58.11
2023-10-14T10:32:48.167Z,57.99
2023-10-14T10:35:17.779Z,58.42
2023-10-14T10:37:48.361Z,57.48
2023-10-14T10:40:19.267Z,57.22
2023-10-14T10:42:57.880Z,57.42
2023-10-14T10:45:32.662Z,58.00
2023-10-14T10:48:05.708Z,58.03
2023-10-14T10:50:39.608Z,58.12
2023-10-14T10:53:09.464Z,57.52
2023-10-14T10:55:44.280Z,57.15
2023-10-14T10:58:12.883Z,57.00
2023-10-14T11:00:42.221Z,56.92
2023-10-14T11:03:14.904Z,57.65
2023-10-14T11:05:49.123Z,57.65
2023-10-14T11:08:17.606Z,57.80
2023-10-14T11:10:45.904Z,58.31
2023-10-14T11:13:14.622Z,58.50
2023-10-14T11:15:42.333Z,58.04
2023-10-14T11:18:20.223Z,57.36
2023-10-14T11:20:48.196Z,57.66
2023-10-14T11:23:17.568Z,56.98
2023-10-14T11:25:47.783Z,57.93
2023-10-14T11:28:16.372Z,57.54
2023-10-14T11:30:45.512Z,56.40
2023-10-14T11:33:14.019Z,56.84
2023-10-14T11:35:41.806Z,57.56
2023-10-14T11:38:13.876Z,58.49
2023-10-14T11:40:46.701Z,58.39
2023-10-14T11:43:13.425Z,57.69
2023-10-14T11:45:44.845Z,57.92
2023-10-14T11:48:34.905Z,58.44
2023-10-14T11:51:12.660Z,57.76
2023-10-14T11:53:45.431Z,57.71
2023-10-14T11:56:15.277Z,58.00
2023-10-14T11:58:42.344Z,57.90
2023-10-14T12:01:12.733Z,58.13
2023-10-14T12:03:40.681Z,58.02
2023-10-14T12:06:09.858Z,58.01
2023-10-14T12:08:40.792Z,58.64
2023-10-14T12:11:10.407Z,58.23
2023-10-14T12:13:48.646Z,57.63
2023-10-14T12:16:16.792Z,58.26
2023-10-14T12:18:47.223Z,58.46
2023-10-14T12:21:14.695Z,58.61
2023-10-14T12:23:42.303Z,59.23
2023-10-14T12:28:44.909Z,59.84
2023-10-14T12:31:14.404Z,59.63
2023-10-14T12:33:43.339Z,59.63
2023-10-14T12:36:15.363Z,59.40
2023-10-14T12:38:45.897Z,60.00
2023-10-14T12:41:22.837Z,60.67
2023-10-14T12:43:52.605Z,60.30
2023-10-14T12:46:19.468Z,60.17
2023-10-14T12:48:48.228Z,61.14
2023-10-14T12:51:19.565Z,61.02
2023-10-14T12:53:47.211Z,61.68
2023-10-14T12:56:18.541Z,61.58
2023-10-14T12:58:46.568Z,61.74
2023-10-14T13:01:21.387Z,61.83
2023-10-14T13:03:54.151Z,62.29
2023-10-14T13:06:25.951Z,62.38
2023-10-14T13:09:02.750Z,62.70
2023-10-14T13:11:31.082Z,62.94
2023-10-14T13:14:00.896Z,62.51
2023-10-14T13:16:28.528Z,62.51
2023-10-14T13:18:58.404Z,62.76
2023-10-14T13:21:30.726Z,62.57
2023-10-14T13:23:58.358Z,62.21
2023-10-14T13:26:25.328Z,61.62
2023-10-14T13:28:52.084Z,61.27
2023-10-14T13:31:20.739Z,61.67
2023-10-14T13:33:51.131Z,61.59
2023-10-14T13:36:19.018Z,61.67
2023-10-14T13:38:48.180Z,61.51
2023-10-14T13:41:16.352Z,61.60
2023-10-14T13:43:43.962Z,61.57
2023-10-14T13:46:11.310Z,61.93
2023-10-14T13:48:38.294Z,62.67
2023-10-14T13:51:05.213Z,62.44
2023-10-14T13:53:34.727Z,62.33
2023-10-14T13:56:03.103Z,62.41
2023-10-14T13:58:32.473Z,62.72
2023-10-14T14:01:02.603Z,63.36
2023-10-14T14:03:32.985Z,63.31
2023-10-14T14:06:06.220Z,63.17
2023-10-14T14:08:33.156Z,63.36
2023-10-14T14:11:05.353Z,63.74
2023-10-14T14:13:33.034Z,64.00
2023-10-14T14:16:03.455Z,64.17
2023-10-14T14:18:30.512Z,64.40
2023-10-14T14:20:57.346Z,64.36
2023-10-14T14:23:24.122Z,64.38
2023-10-14T14:25:51.195Z,64.73
2023-10-14T14:28:19.144Z,65.21
2023-10-14T14:30:51.286Z,65.52
2023-10-14T14:33:19.141Z,65.49
2023-10-14T14:35:48.952Z,65.57
2023-10-14T14:38:17.750Z,65.86
2023-10-14T14:40:46.380Z,66.11
2023-10-14T14:43:14.153Z,66.38
2023-10-14T14:45:41.124Z,66.33
2023-10-14T14:48:08.536Z,66.91
2023-10-14T14:50:39.362Z,66.89
2023-10-14T14:53:07.912Z,66.84
2023-10-14T14:55:41.822Z,67.03
2023-10-14T14:58:08.686Z,66.70
2023-10-14T15:00:35.643Z,66.98
2023-10-14T15:03:08.355Z,67.09
2023-10-14T15:05:37.257Z,67.16
2023-10-14T15:08:05.767Z,67.29
2023-10-14T15:10:35.823Z,66.84
2023-10-14T15:13:04.456Z,66.76
2023-10-14T15:15:31.258Z,66.94
2023-10-14T15:17:58.083Z,67.13
2023-10-14T15:20:25.164Z,67.17
2023-10-14T15:22:52.881Z,67.11
2023-10-14T15:25:22.743Z,67.03
2023-10-14T15:27:49.709Z,66.96
2023-10-14T15:30:18.678Z,67.21
2023-10-14T15:32:47.513Z,67.12
2023-10-14T15:35:17.593Z,67.08
2023-10-14T15:37:49.170Z,67.29
2023-10-14T15:40:19.328Z,67.49
2023-10-14T15:42:48.202Z,67.73
2023-10-14T15:45:25.332Z,67.54
2023-10-14T15:47:55.737Z,67.78
2023-10-14T15:50:24.841Z,67.76
2023-10-14T15:52:56.026Z,67.88
2023-10-14T15:55:25.291Z,67.90
2023-10-14T15:57:53.105Z,67.92
2023-10-14T16:00:28.064Z,68.25
2023-10-14T16:02:58.311Z,69.15
2023-10-14T16:05:26.592Z,70.36
2023-10-14T16:07:55.371Z,71.49
2023-10-14T16:10:23.001Z,72.51
2023-10-14T16:12:51.004Z,73.71
2023-10-14T16:15:17.964Z,74.92
2023-10-14T16:17:54.708Z,75.77
2023-10-14T16:20:23.492Z,76.25
2023-10-14T16:22:52.018Z,76.71
2023-10-14T16:25:22.944Z,76.68
2023-10-14T16:27:54.286Z,77.48
2023-10-14T16:30:23.372Z,77.73
2023-10-14T16:32:54.588Z,78.32
2023-10-14T16:35:23.598Z,78.42
2023-10-14T16:37:51.153Z,79.21
2023-10-14T16:40:20.766Z,80.13
2023-10-14T16:43:01.886Z,80.58
2023-10-14T16:45:29.148Z,81.03
2023-10-14T16:47:57.814Z,81.69
2023-10-14T16:50:32.211Z,81.59
2023-10-14T16:52:59.410Z,82.22
2023-10-14T16:55:26.720Z,82.47
2023-10-14T16:57:54.759Z,83.00
2023-10-14T17:00:24.981Z,83.34
2023-10-14T17:02:56.484Z,83.85
2023-10-14T17:05:24.819Z,84.11
2023-10-14T17:08:03.010Z,84.11
2023-10-14T17:10:33.252Z,84.85
2023-10-14T17:13:02.139Z,85.44
2023-10-14T17:15:32.053Z,85.76
2023-10-14T17:18:03.827Z,86.15
2023-10-14T17:20:32.705Z,86.70
2023-10-14T17:23:02.217Z,86.16
2023-10-14T17:25:33.841Z,85.84
2023-10-14T17:28:05.090Z,85.27
2023-10-14T17:30:33.497Z,85.00
2023-10-14T17:33:03.321Z,85.00
2023-10-14T17:35:30.612Z,85.20
2023-10-14T17:37:59.637Z,85.26
2023-10-14T17:40:31.080Z,85.72
2023-10-14T17:43:03.763Z,86.03
2023-10-14T17:45:31.874Z,86.14
2023-10-14T17:48:00.445Z,86.05
2023-10-14T17:50:29.226Z,86.28
2023-10-14T17:52:57.765Z,86.27
2023-10-14T17:55:26.486Z,86.55
2023-10-14T17:57:55.587Z,86.47
2023-10-14T18:00:29.335Z,86.24
2023-10-14T18:02:58.115Z,86.30
2023-10-14T18:05:25.315Z,86.29
2023-10-14T18:07:52.975Z,86.62
2023-10-14T18:10:19.656Z,86.58
2023-10-14T18:12:46.651Z,86.52
2023-10-14T18:15:17.833Z,85.67
2023-10-14T18:17:47.045Z,85.73
2023-10-14T18:20:16.010Z,85.87
2023-10-14T18:22:51.913Z,85.94
2023-10-14T18:25:21.152Z,85.85
2023-10-14T18:27:49.396Z,85.72
2023-10-14T18:30:24.169Z,86.18
2023-10-14T18:32:53.077Z,86.15
2023-10-14T18:35:22.076Z,86.67
2023-10-14T18:37:49.663Z,86.82
2023-10-14T18:40:19.165Z,86.47
2023-10-14T18:42:47.382Z,86.35
2023-10-14T18:45:19.610Z,87.10
2023-10-14T18:47:57.598Z,87.03
2023-10-14T18:50:32.140Z,86.75
2023-10-14T18:53:04.106Z,87.24
2023-10-14T18:55:31.326Z,87.70
2023-10-14T18:58:08.529Z,87.81
2023-10-14T19:00:43.152Z,87.90
2023-10-14T19:03:11.501Z,88.13
2023-10-14T19:05:42.450Z,87.95
2023-10-14T19:08:13.053Z,87.93
2023-10-14T19:10:43.702Z,88.36
2023-10-14T19:13:12.554Z,88.44
2023-10-14T19:15:45.568Z,88.51
2023-10-14T19:18:17.210Z,88.32
2023-10-14T19:20:44.176Z,88.69
2023-10-14T19:23:14.013Z,89.03
2023-10-14T19:25:44.981Z,89.01
2023-10-14T19:28:11.844Z,89.42
2023-10-14T19:30:43.628Z,89.36
2023-10-14T19:33:11.543Z,89.43
2023-10-14T19:35:42.234Z,89.84
2023-10-14T19:38:09.430Z,90.14
2023-10-14T19:40:36.781Z,90.36
2023-10-14T19:43:04.658Z,90.52
2023-10-14T19:45:31.426Z,90.99
2023-10-14T19:47:58.749Z,91.23
2023-10-14T19:50:31.326Z,91.36
2023-10-14T19:52:59.360Z,91.58
2023-10-14T19:55:29.368Z,91.58
2023-10-14T19:57:56.423Z,91.38
2023-10-14T20:00:26.778Z,91.61
2023-10-14T20:03:03.882Z,91.47
2023-10-14T20:05:37.128Z,91.16
2023-10-14T20:08:05.526Z,91.43
2023-10-14T20:10:41.835Z,91.42
2023-10-14T20:13:11.400Z,91.44
2023-10-14T20:15:38.787Z,91.73
2023-10-14T20:18:06.347Z,91.76
2023-10-14T20:20:33.055Z,91.82
2023-10-14T20:22:59.953Z,91.67
2023-10-14T20:25:28.603Z,91.85
2023-10-14T20:27:59.865Z,91.85
2023-10-14T20:30:28.653Z,91.70
2023-10-14T20:32:57.134Z,91.82
2023-10-14T20:35:33.066Z,91.99
2023-10-14T20:38:00.748Z,92.45
2023-10-14T20:40:34.370Z,92.39
2023-10-14T20:43:01.272Z,92.54
2023-10-14T20:45:29.814Z,92.57
2023-10-14T20:48:03.043Z,92.37
2023-10-14T20:50:31.708Z,92.15
2023-10-14T20:53:01.800Z,92.08
2023-10-14T20:55:30.114Z,92.46
2023-10-14T20:58:01.905Z,92.78
2023-10-14T21:00:35.936Z,92.79
2023-10-14T21:03:10.115Z,93.10
2023-10-14T21:05:40.620Z,93.18
2023-10-14T21:08:15.072Z,93.14
2023-10-14T21:10:49.740Z,92.86
2023-10-14T21:13:22.850Z,92.69
2023-10-14T21:15:59.707Z,93.08
2023-10-14T21:18:27.477Z,93.58
2023-10-14T21:20:56.544Z,94.08
2023-10-14T21:23:23.471Z,94.30
2023-10-14T21:26:00.927Z,93.87
2023-10-14T21:28:28.305Z,94.11
2023-10-14T21:30:55.542Z,94.06
2023-10-14T21:33:22.510Z,93.71
2023-10-14T21:35:50.016Z,93.82
2023-10-14T21:38:17.576Z,93.54
2023-10-14T21:40:45.479Z,93.63
2023-10-14T21:43:12.329Z,93.45
2023-10-14T21:45:39.819Z,93.83
2023-10-14T21:48:12.427Z,93.92
2023-10-14T21:50:39.147Z,94.08
2023-10-14T21:53:06.753Z,93.71
2023-10-14T21:55:36.550Z,93.81
2023-10-14T21:58:04.048Z,93.65
2023-10-14T22:00:39.389Z,93.37
2023-10-14T22:03:08.782Z,93.29
2023-10-14T22:05:37.494Z,93.70
2023-10-14T22:08:06.605Z,93.94
2023-10-14T22:10:33.608Z,93.89
2023-10-14T22:13:00.564Z,93.82
2023-10-14T22:15:30.417Z,93.63
2023-10-14T22:18:01.417Z,93.86
2023-10-14T22:20:31.770Z,93.76
2023-10-14T22:23:05.146Z,94.13
2023-10-14T22:25:35.064Z,94.04
2023-10-14T22:28:03.944Z,94.04
2023-10-14T22:30:30.802Z,94.42
2023-10-14T22:32:58.469Z,94.44
2023-10-14T22:35:25.706Z,94.39
2023-10-14T22:37:55.695Z,94.49
2023-10-14T22:40:25.983Z,94.25
2023-10-14T22:42:57.227Z,94.25
2023-10-14T22:45:44.852Z,94.44
2023-10-14T22:48:12.378Z,94.52
2023-10-14T22:50:39.055Z,94.53
2023-10-14T22:53:05.861Z,94.46
2023-10-14T22:55:35.016Z,94.76
2023-10-14T22:58:02.137Z,95.13
2023-10-14T23:00:31.128Z,95.22
2023-10-14T23:02:58.130Z,95.07
2023-10-14T23:05:31.996Z,95.22
2023-10-14T23:08:01.521Z,95.33
2023-10-14T23:10:32.261Z,95.24
2023-10-14T23:13:00.890Z,95.35
2023-10-14T23:15:29.499Z,95.17
2023-10-14T23:17:58.390Z,95.21
2023-10-14T23:20:27.914Z,95.34
2023-10-14T23:22:56.079Z,95.02
2023-10-14T23:25:26.011Z,94.86
2023-10-14T23:27:54.839Z,94.77
2023-10-14T23:30:23.653Z,94.84
2023-10-14T23:32:58.958Z,94.46
2023-10-14T23:35:26.473Z,94.22
2023-10-14T23:38:00.754Z,94.32
2023-10-14T23:40:31.272Z,94.42
2023-10-14T23:43:01.208Z,94.40
2023-10-14T23:45:29.422Z,94.16
2023-10-14T23:47:57.025Z,94.25
2023-10-14T23:50:26.937Z,93.97
2023-10-14T23:52:54.210Z,93.92
2023-10-14T23:55:26.233Z,94.09
2023-10-14T23:57:58.028Z,94.10
